createdAt,value
2023-05-22T00:01:46.688Z,20.55
2023-05-22T00:04:21.192Z,20.45
2023-05-22T00:06:50.598Z,20.54
2023-05-22T00:09:19.063Z,20.47
2023-05-22T00:11:46.928Z,20.44
2023-05-22T00:14:14.688Z,20.42
2023-05-22T00:16:42.862Z,20.45
2023-05-22T00:19:13.427Z,20.43
2023-05-22T00:21:41.526Z,20.48
2023-05-22T00:24:10.662Z,20.51
2023-05-22T00:26:38.706Z,20.44
2023-05-22T00:29:06.799Z,20.46
2023-05-22T00:31:34.742Z,20.45
2023-05-22T00:34:02.643Z,20.47
2023-05-22T00:36:30.485Z,20.53
2023-05-22T00:38:58.443Z,20.56
2023-05-22T00:41:27.788Z,20.58
2023-05-22T00:43:55.686Z,20.53
2023-05-22T00:46:24.642Z,20.49
2023-05-22T00:48:53.433Z,20.45
2023-05-22T00:51:22.622Z,20.45
2023-05-22T00:53:51.282Z,20.40
2023-05-22T00:56:21.015Z,20.41
2023-05-22T00:58:50.179Z,20.42
2023-05-22T01:01:18.246Z,20.43
2023-05-22T01:03:47.206Z,20.42
2023-05-22T01:06:18.623Z,20.36
2023-05-22T01:08:46.486Z,20.30
2023-05-22T01:11:19.055Z,20.30
2023-05-22T01:13:54.781Z,20.34
2023-05-22T01:16:33.418Z,20.35
2023-05-22T01:19:06.327Z,20.38
2023-05-22T01:21:40.519Z,20.33
2023-05-22T01:24:43.393Z,20.28
2023-05-22T01:27:43.862Z,20.26
2023-05-22T01:30:26.735Z,20.13
2023-05-22T01:32:59.168Z,20.05
2023-05-22T01:35:28.605Z,20.00
2023-05-22T01:37:58.227Z,19.98
2023-05-22T01:40:26.883Z,19.87
2023-05-22T01:42:54.969Z,19.87
2023-05-22T01:45:23.041Z,19.93
2023-05-22T01:47:50.992Z,19.97
2023-05-22T01:50:21.143Z,19.92
2023-05-22T01:52:59.973Z,19.85
2023-05-22T01:55:35.429Z,19.79
2023-05-22T01:58:17.523Z,19.66
2023-05-22T02:00:48.058Z,19.62
2023-05-22T02:03:23.083Z,19.59
2023-05-22T02:05:55.352Z,19.58
2023-05-22T02:08:24.929Z,19.51
2023-05-22T02:10:55.906Z,19.54
2023-05-22T02:13:24.387Z,19.53
2023-05-22T02:15:52.685Z,19.42
2023-05-22T02:18:20.797Z,19.35
2023-05-22T02:20:48.582Z,19.36
2023-05-22T02:23:17.753Z,19.28
2023-05-22T02:25:45.659Z,19.36
2023-05-22T02:28:13.444Z,19.32
2023-05-22T02:30:41.412Z,19.25
2023-05-22T02:33:09.426Z,19.25
2023-05-22T02:35:37.439Z,19.21
2023-05-22T02:38:05.435Z,19.17
2023-05-22T02:40:34.602Z,19.18
2023-05-22T02:43:02.578Z,19.11
2023-05-22T02:45:30.435Z,19.08
2023-05-22T02:47:58.372Z,19.11
2023-05-22T02:50:26.273Z,19.12
2023-05-22T02:52:54.040Z,19.16
2023-05-22T02:55:22.725Z,19.11
2023-05-22T02:57:51.840Z,19.04
2023-05-22T03:00:22.552Z,19.07
2023-05-22T03:02:50.376Z,19.01
2023-05-22T03:05:18.784Z,18.94
2023-05-22T03:07:49.343Z,18.94
2023-05-22T03:10:17.259Z,18.94
2023-05-22T03:12:44.999Z,19.00
2023-05-22T03:15:14.148Z,18.94
2023-05-22T03:17:41.978Z,18.97
2023-05-22T03:20:10.763Z,18.96
2023-05-22T03:22:38.517Z,18.89
2023-05-22T03:25:09.398Z,18.87
2023-05-22T03:27:37.341Z,18.84
2023-05-22T03:30:06.100Z,18.77
2023-05-22T03:32:37.328Z,18.75
2023-05-22T03:35:06.332Z,18.81
2023-05-22T03:37:34.091Z,18.81
2023-05-22T03:40:03.825Z,18.84
2023-05-22T03:42:31.608Z,18.77
2023-05-22T03:44:59.342Z,18.65
2023-05-22T03:47:27.213Z,18.75
2023-05-22T03:49:56.464Z,18.73
2023-05-22T03:52:24.438Z,18.72
2023-05-22T03:54:53.500Z,18.75
2023-05-22T03:57:21.372Z,18.66
2023-05-22T03:59:49.362Z,18.62
2023-05-22T04:02:17.811Z,18.67
2023-05-22T04:04:47.052Z,18.69
2023-05-22T04:07:18.411Z,18.71
2023-05-22T04:09:46.328Z,18.63
2023-05-22T04:12:16.768Z,18.67
2023-05-22T04:14:44.558Z,18.72
2023-05-22T04:17:12.782Z,18.62
2023-05-22T04:19:40.500Z,18.67
2023-05-22T04:22:09.681Z,18.73
2023-05-22T04:24:39.769Z,18.68
2023-05-22T04:27:07.955Z,18.68
2023-05-22T04:29:41.518Z,18.64
2023-05-22T04:32:10.553Z,18.67
2023-05-22T04:34:38.647Z,18.68
2023-05-22T04:37:06.865Z,18.60
2023-05-22T04:39:35.076Z,18.61
2023-05-22T04:42:05.918Z,18.62
2023-05-22T04:44:34.560Z,18.61
2023-05-22T04:47:05.997Z,18.58
2023-05-22T04:49:35.494Z,18.56
2023-05-22T04:52:04.853Z,18.61
2023-05-22T04:54:32.716Z,18.57
2023-05-22T04:57:00.557Z,18.49
2023-05-22T04:59:29.598Z,18.50
2023-05-22T05:01:57.328Z,18.50
2023-05-22T05:04:25.118Z,18.58
2023-05-22T05:06:53.606Z,18.50
2023-05-22T05:09:21.303Z,18.52
2023-05-22T05:11:49.345Z,18.45
2023-05-22T05:14:17.792Z,18.51
2023-05-22T05:16:47.593Z,18.38
2023-05-22T05:19:16.611Z,18.38
2023-05-22T05:21:44.470Z,18.46
2023-05-22T05:24:13.072Z,18.42
2023-05-22T05:26:40.849Z,18.35
2023-05-22T05:29:08.606Z,18.51
2023-05-22T05:31:38.588Z,18.57
2023-05-22T05:34:07.886Z,18.53
2023-05-22T05:36:35.704Z,18.57
2023-05-22T05:39:03.694Z,18.45
2023-05-22T05:41:31.456Z,18.56
2023-05-22T05:44:00.098Z,18.51
2023-05-22T05:46:28.126Z,18.47
2023-05-22T05:48:55.847Z,18.54
2023-05-22T05:51:24.978Z,18.65
2023-05-22T05:53:52.845Z,18.68
2023-05-22T05:56:21.218Z,18.73
2023-05-22T05:58:48.985Z,18.80
2023-05-22T06:01:18.260Z,18.77
2023-05-22T06:03:46.202Z,18.69
2023-05-22T06:06:14.144Z,18.63
2023-05-22T06:08:43.245Z,18.76
2023-05-22T06:11:11.172Z,18.79
2023-05-22T06:13:38.944Z,18.80
2023-05-22T06:16:07.157Z,18.94
2023-05-22T06:18:35.231Z,18.92
2023-05-22T06:21:03.053Z,18.92
2023-05-22T06:23:30.902Z,18.95
2023-05-22T06:26:00.073Z,19.03
2023-05-22T06:28:27.780Z,19.09
2023-05-22T06:30:57.126Z,19.14
2023-05-22T06:33:26.499Z,19.15
2023-05-22T06:35:55.513Z,19.09
2023-05-22T06:38:23.382Z,19.23
2023-05-22T06:40:51.404Z,19.28
2023-05-22T06:43:20.785Z,19.39
2023-05-22T06:45:48.497Z,19.38
2023-05-22T06:48:16.828Z,19.40
2023-05-22T06:50:44.568Z,19.43
2023-05-22T06:53:12.677Z,19.51
2023-05-22T06:55:40.575Z,19.45
2023-05-22T06:58:08.617Z,19.55
2023-05-22T07:00:37.889Z,19.52
2023-05-22T07:03:06.775Z,19.57
2023-05-22T07:05:34.636Z,19.62
2023-05-22T07:08:02.801Z,19.62
2023-05-22T07:10:30.680Z,19.62
2023-05-22T07:12:58.877Z,19.62
2023-05-22T07:15:26.624Z,19.69
2023-05-22T07:17:55.831Z,19.85
2023-05-22T07:20:25.540Z,20.02
2023-05-22T07:22:53.507Z,20.06
2023-05-22T07:25:21.227Z,20.03
2023-05-22T07:27:49.076Z,20.08
2023-05-22T07:30:17.171Z,20.11
2023-05-22T07:32:46.259Z,20.20
2023-05-22T07:35:15.714Z,20.19
2023-05-22T07:37:43.413Z,20.19
2023-05-22T07:40:12.348Z,20.25
2023-05-22T07:42:40.099Z,20.32
2023-05-22T07:45:08.463Z,20.46
2023-05-22T07:47:36.231Z,20.54
2023-05-22T07:50:06.001Z,20.66
2023-05-22T07:52:35.263Z,20.75
2023-05-22T07:55:02.987Z,20.77
2023-05-22T07:57:30.764Z,20.80
2023-05-22T07:59:59.197Z,20.86
2023-05-22T08:02:27.105Z,20.94
2023-05-22T08:04:54.968Z,20.98
2023-05-22T08:07:22.774Z,20.99
2023-05-22T08:09:51.854Z,21.09
2023-05-22T08:12:19.625Z,21.20
2023-05-22T08:14:47.307Z,21.32
2023-05-22T08:17:15.245Z,21.37
2023-05-22T08:19:43.147Z,21.32
2023-05-22T08:22:10.950Z,21.34
2023-05-22T08:24:38.700Z,21.44
2023-05-22T08:27:08.244Z,21.46
2023-05-22T08:29:36.163Z,21.54
2023-05-22T08:32:04.132Z,21.57
2023-05-22T08:34:32.999Z,21.65
2023-05-22T08:37:00.747Z,21.73
2023-05-22T08:39:29.048Z,21.83
2023-05-22T08:41:57.084Z,21.89
2023-05-22T08:44:26.276Z,22.00
2023-05-22T08:46:56.701Z,22.10
2023-05-22T08:49:25.801Z,22.13
2023-05-22T08:51:57.352Z,22.22
2023-05-22T08:54:27.797Z,22.27
2023-05-22T08:56:57.252Z,22.35
2023-05-22T08:59:26.837Z,22.39
2023-05-22T09:01:55.156Z,22.41
2023-05-22T09:04:24.177Z,22.45
2023-05-22T09:06:52.663Z,22.52
2023-05-22T09:09:20.448Z,22.57
2023-05-22T09:11:48.245Z,22.59
2023-05-22T09:14:16.262Z,22.66
2023-05-22T09:16:49.545Z,22.72
2023-05-22T09:19:17.675Z,22.79
2023-05-22T09:21:45.712Z,22.81
2023-05-22T09:24:13.536Z,22.91
2023-05-22T09:26:41.723Z,22.98
2023-05-22T09:29:10.562Z,23.05
2023-05-22T09:31:45.335Z,23.13
2023-05-22T09:34:15.438Z,23.21
2023-05-22T09:36:43.411Z,23.24
2023-05-22T09:39:11.444Z,23.21
2023-05-22T09:41:40.908Z,23.24
2023-05-22T09:44:13.742Z,23.23
2023-05-22T09:46:42.493Z,23.11
2023-05-22T09:49:11.071Z,23.04
2023-05-22T09:51:43.229Z,23.00
2023-05-22T09:54:13.227Z,23.10
2023-05-22T09:56:42.990Z,23.17
2023-05-22T09:59:13.991Z,23.23
2023-05-22T10:01:42.539Z,23.33
2023-05-22T10:04:15.904Z,23.42
2023-05-22T10:06:52.209Z,23.39
2023-05-22T10:09:22.851Z,23.44
2023-05-22T10:11:55.554Z,23.51
2023-05-22T10:14:24.919Z,23.46
2023-05-22T10:16:54.537Z,23.43
2023-05-22T10:19:26.844Z,23.43
2023-05-22T10:21:57.415Z,23.43
2023-05-22T10:24:26.014Z,23.49
2023-05-22T10:26:57.128Z,23.57
2023-05-22T10:29:29.574Z,23.66
2023-05-22T10:32:07.558Z,23.72
2023-05-22T10:34:42.029Z,23.79
2023-05-22T10:37:37.772Z,23.79
2023-05-22T10:40:10.504Z,23.88
2023-05-22T10:42:39.143Z,23.92
2023-05-22T10:45:08.950Z,23.97
2023-05-22T10:47:37.552Z,24.00
2023-05-22T10:50:09.152Z,24.01
2023-05-22T10:52:39.636Z,24.03
2023-05-22T10:55:09.127Z,24.10
2023-05-22T10:57:39.258Z,24.14
2023-05-22T11:00:09.787Z,24.18
2023-05-22T11:02:40.633Z,24.19
2023-05-22T11:05:37.426Z,24.26
2023-05-22T11:08:46.792Z,24.23
2023-05-22T11:11:17.027Z,24.28
2023-05-22T11:13:44.988Z,24.32
2023-05-22T11:16:13.878Z,24.39
2023-05-22T11:18:41.841Z,24.42
2023-05-22T11:21:13.749Z,24.53
2023-05-22T11:23:42.625Z,24.53
2023-05-22T11:26:26.449Z,24.62
2023-05-22T11:28:56.345Z,24.71
2023-05-22T11:31:26.824Z,24.73
2023-05-22T11:33:54.966Z,24.72
2023-05-22T11:36:24.357Z,24.78
2023-05-22T11:38:52.404Z,24.81
2023-05-22T11:41:21.350Z,24.97
2023-05-22T11:43:50.972Z,25.41
2023-05-22T11:46:37.789Z,25.44
2023-05-22T11:49:10.282Z,25.46
2023-05-22T11:51:40.237Z,25.50
2023-05-22T11:54:08.700Z,25.54
2023-05-22T11:56:36.490Z,25.64
2023-05-22T11:59:05.647Z,25.71
2023-05-22T12:01:33.584Z,25.81
2023-05-22T12:04:01.512Z,25.93
2023-05-22T12:06:33.171Z,26.09
2023-05-22T12:09:01.887Z,26.14
2023-05-22T12:11:29.699Z,26.15
2023-05-22T12:14:12.597Z,26.29
2023-05-22T12:16:41.133Z,26.45
2023-05-22T12:19:09.706Z,26.39
2023-05-22T12:21:39.213Z,26.48
2023-05-22T12:24:07.532Z,26.58
2023-05-22T12:26:35.625Z,26.66
2023-05-22T12:29:04.722Z,26.74
2023-05-22T12:31:38.509Z,26.74
2023-05-22T12:34:08.721Z,26.80
2023-05-22T12:36:39.927Z,26.82
2023-05-22T12:39:12.063Z,26.93
2023-05-22T12:41:40.060Z,27.14
2023-05-22T12:44:09.139Z,27.29
2023-05-22T12:46:39.311Z,27.26
2023-05-22T12:49:07.244Z,27.26
2023-05-22T12:51:35.673Z,27.30
2023-05-22T12:54:04.686Z,27.17
2023-05-22T12:56:33.268Z,27.23
2023-05-22T12:59:01.095Z,27.20
2023-05-22T13:01:29.049Z,27.22
2023-05-22T13:03:58.209Z,27.04
2023-05-22T13:06:27.994Z,26.97
2023-05-22T13:09:00.926Z,27.05
2023-05-22T13:11:29.473Z,26.80
2023-05-22T13:13:57.241Z,26.68
2023-05-22T13:16:25.293Z,26.55
2023-05-22T13:18:54.024Z,26.51
2023-05-22T13:21:25.206Z,26.41
2023-05-22T13:23:54.447Z,26.34
2023-05-22T13:26:22.863Z,26.26
2023-05-22T13:28:51.701Z,26.21
2023-05-22T13:31:19.878Z,26.21
2023-05-22T13:33:48.171Z,26.21
2023-05-22T13:36:16.670Z,26.15
2023-05-22T13:38:46.086Z,26.03
2023-05-22T13:41:15.439Z,25.97
2023-05-22T13:43:43.672Z,25.85
2023-05-22T13:46:11.686Z,25.78
2023-05-22T13:48:40.086Z,25.73
2023-05-22T13:51:07.854Z,25.69
2023-05-22T13:53:37.081Z,25.68
2023-05-22T13:56:06.896Z,25.71
2023-05-22T13:58:35.024Z,25.75
2023-05-22T14:01:03.055Z,25.81
2023-05-22T14:03:30.965Z,25.96
2023-05-22T14:05:58.709Z,26.17
2023-05-22T14:08:26.702Z,26.53
2023-05-22T14:10:54.977Z,26.83
2023-05-22T14:13:24.188Z,27.08
2023-05-22T14:15:51.902Z,27.12
2023-05-22T14:18:19.799Z,26.90
2023-05-22T14:20:48.006Z,26.71
2023-05-22T14:23:16.236Z,26.61
2023-05-22T14:25:44.326Z,26.46
2023-05-22T14:28:12.361Z,26.62
2023-05-22T14:30:41.630Z,26.54
2023-05-22T14:33:09.718Z,26.41
2023-05-22T14:35:37.431Z,26.31
2023-05-22T14:38:05.386Z,26.21
2023-05-22T14:40:33.140Z,26.09
2023-05-22T14:43:00.970Z,25.93
2023-05-22T14:45:28.736Z,25.84
2023-05-22T14:47:57.858Z,25.72
2023-05-22T14:50:25.592Z,25.69
2023-05-22T14:52:53.336Z,25.66
2023-05-22T14:55:21.872Z,25.60
2023-05-22T14:57:49.729Z,25.54
2023-05-22T15:00:18.473Z,25.47
2023-05-22T15:02:46.608Z,25.44
2023-05-22T15:05:17.378Z,25.43
2023-05-22T15:07:47.205Z,25.43
2023-05-22T15:10:16.208Z,25.39
2023-05-22T15:12:44.069Z,25.36
2023-05-22T15:15:12.507Z,25.35
2023-05-22T15:17:42.545Z,25.29
2023-05-22T15:20:11.733Z,25.22
2023-05-22T15:22:43.556Z,25.20
2023-05-22T15:25:15.075Z,25.16
2023-05-22T15:27:43.438Z,25.08
2023-05-22T15:30:12.147Z,25.07
2023-05-22T15:32:40.237Z,25.06
2023-05-22T15:35:09.228Z,25.04
2023-05-22T15:37:37.381Z,25.00
2023-05-22T15:40:09.638Z,24.93
2023-05-22T15:42:37.856Z,24.90
2023-05-22T15:45:06.683Z,24.89
2023-05-22T15:47:34.495Z,24.86
2023-05-22T15:50:03.999Z,24.79
2023-05-22T15:52:31.808Z,24.71
2023-05-22T15:54:59.842Z,24.61
2023-05-22T15:57:29.224Z,24.54
2023-05-22T15:59:57.387Z,24.57
2023-05-22T16:02:25.477Z,24.56
2023-05-22T16:04:54.540Z,24.53
2023-05-22T16:07:22.455Z,24.52
2023-05-22T16:09:51.173Z,24.47
2023-05-22T16:12:19.552Z,24.39
2023-05-22T16:14:49.599Z,24.34
2023-05-22T16:17:17.709Z,24.35
2023-05-22T16:19:45.932Z,24.33
2023-05-22T16:22:14.147Z,24.32
2023-05-22T16:24:42.017Z,24.31
2023-05-22T16:27:10.083Z,24.20
2023-05-22T16:29:37.894Z,24.14
2023-05-22T16:32:08.284Z,24.09
2023-05-22T16:34:36.510Z,24.04
2023-05-22T16:37:04.434Z,24.08
2023-05-22T16:39:32.266Z,24.10
2023-05-22T16:42:01.433Z,23.95
2023-05-22T16:44:29.148Z,23.88
2023-05-22T16:46:56.824Z,23.83
2023-05-22T16:49:27.146Z,23.81
2023-05-22T16:51:55.155Z,23.79
2023-05-22T16:54:22.914Z,23.68
2023-05-22T16:56:50.715Z,23.55
2023-05-22T16:59:19.507Z,23.55
2023-05-22T17:01:47.698Z,23.39
2023-05-22T17:04:19.182Z,23.37
2023-05-22T17:06:49.130Z,23.26
2023-05-22T17:09:17.276Z,23.01
2023-05-22T17:11:44.989Z,22.88
2023-05-22T17:14:12.868Z,22.65
2023-05-22T17:16:40.808Z,22.57
2023-05-22T17:19:09.874Z,22.54
2023-05-22T17:21:38.005Z,22.50
2023-05-22T17:24:11.542Z,22.42
2023-05-22T17:26:40.654Z,22.33
2023-05-22T17:29:09.352Z,22.35
2023-05-22T17:31:39.421Z,22.35
2023-05-22T17:34:07.959Z,22.46
2023-05-22T17:36:36.176Z,22.41
2023-05-22T17:39:04.226Z,22.44
2023-05-22T17:41:33.497Z,22.46
2023-05-22T17:44:04.972Z,22.50
2023-05-22T17:46:33.046Z,22.43
2023-05-22T17:49:00.987Z,22.40
2023-05-22T17:51:29.156Z,22.43
2023-05-22T17:53:59.039Z,22.44
2023-05-22T17:56:27.749Z,22.31
2023-05-22T17:58:57.600Z,22.09
2023-05-22T18:01:27.276Z,22.01
2023-05-22T18:03:55.379Z,22.10
2023-05-22T18:06:24.483Z,22.18
2023-05-22T18:08:52.430Z,22.23
2023-05-22T18:11:21.316Z,22.19
2023-05-22T18:13:49.357Z,22.05
2023-05-22T18:16:19.933Z,22.17
2023-05-22T18:18:48.458Z,22.23
2023-05-22T18:21:16.476Z,22.30
2023-05-22T18:23:44.372Z,22.30
2023-05-22T18:26:12.375Z,22.26
2023-05-22T18:28:41.611Z,22.22
2023-05-22T18:31:09.641Z,22.19
2023-05-22T18:33:41.106Z,22.11
2023-05-22T18:36:08.993Z,22.08
2023-05-22T18:38:37.198Z,22.09
2023-05-22T18:41:05.315Z,22.05
2023-05-22T18:43:33.591Z,22.03
2023-05-22T18:46:01.522Z,21.99
2023-05-22T18:48:31.028Z,21.84
2023-05-22T18:51:00.715Z,21.69
2023-05-22T18:53:28.741Z,21.67
2023-05-22T18:55:56.741Z,21.64
2023-05-22T18:58:25.630Z,21.44
2023-05-22T19:00:56.841Z,21.39
2023-05-22T19:03:25.213Z,21.34
2023-05-22T19:05:53.348Z,21.30
2023-05-22T19:08:25.005Z,21.26
2023-05-22T19:10:53.021Z,21.17
2023-05-22T19:13:21.006Z,21.17
2023-05-22T19:15:48.778Z,21.12
2023-05-22T19:18:17.138Z,21.07
2023-05-22T19:20:45.131Z,21.03
2023-05-22T19:23:13.757Z,21.07
2023-05-22T19:25:43.077Z,21.03
2023-05-22T19:28:11.272Z,20.98
2023-05-22T19:30:39.446Z,20.98
2023-05-22T19:33:09.051Z,21.01
2023-05-22T19:35:37.949Z,21.06
2023-05-22T19:38:06.079Z,21.07
2023-05-22T19:40:33.933Z,21.05
2023-05-22T19:43:03.526Z,21.08
2023-05-22T19:45:31.649Z,21.09
2023-05-22T19:47:59.514Z,21.06
2023-05-22T19:50:27.417Z,21.04
2023-05-22T19:52:55.454Z,21.00
2023-05-22T19:55:23.624Z,20.96
2023-05-22T19:57:51.697Z,20.94
2023-05-22T20:00:22.737Z,20.83
2023-05-22T20:02:51.527Z,20.71
2023-05-22T20:05:19.507Z,20.62
2023-05-22T20:07:48.522Z,20.57
2023-05-22T20:10:16.810Z,20.57
2023-05-22T20:12:44.557Z,20.51
2023-05-22T20:15:15.007Z,20.46
2023-05-22T20:17:47.606Z,20.52
2023-05-22T20:20:15.777Z,20.53
2023-05-22T20:22:44.279Z,20.57
2023-05-22T20:25:12.427Z,20.57
2023-05-22T20:27:40.617Z,20.54
2023-05-22T20:30:11.537Z,20.50
2023-05-22T20:32:40.395Z,20.41
2023-05-22T20:35:11.016Z,20.34
2023-05-22T20:37:41.657Z,20.35
2023-05-22T20:40:10.527Z,20.34
2023-05-22T20:42:38.564Z,20.32
2023-05-22T20:45:07.719Z,20.35
2023-05-22T20:47:35.756Z,20.37
2023-05-22T20:50:03.575Z,20.37
2023-05-22T20:52:34.468Z,20.34
2023-05-22T20:55:02.820Z,20.32
2023-05-22T20:57:32.314Z,20.33
2023-05-22T21:00:02.386Z,20.32
2023-05-22T21:02:30.177Z,20.26
2023-05-22T21:04:58.062Z,20.24
2023-05-22T21:07:25.834Z,20.19
2023-05-22T21:09:54.808Z,20.19
2023-05-22T21:12:22.652Z,20.19
2023-05-22T21:14:50.484Z,20.21
2023-05-22T21:17:18.288Z,20.19
2023-05-22T21:19:46.150Z,20.21
2023-05-22T21:22:13.871Z,20.20
2023-05-22T21:24:41.711Z,20.18
2023-05-22T21:27:10.842Z,20.16
2023-05-22T21:29:38.606Z,20.11
2023-05-22T21:32:07.091Z,20.07
2023-05-22T21:34:35.417Z,20.09
2023-05-22T21:37:04.543Z,20.11
2023-05-22T21:39:32.431Z,20.10
2023-05-22T21:42:00.370Z,20.11
2023-05-22T21:44:29.585Z,20.10
2023-05-22T21:46:57.434Z,20.11
2023-05-22T21:49:25.321Z,20.11
2023-05-22T21:51:53.179Z,20.12
2023-05-22T21:54:20.953Z,20.10
2023-05-22T21:56:48.720Z,19.93
2023-05-22T21:59:17.874Z,19.85
2023-05-22T22:01:47.046Z,19.84
2023-05-22T22:04:14.778Z,19.81
2023-05-22T22:06:42.449Z,19.79
2023-05-22T22:09:10.185Z,19.76
2023-05-22T22:11:37.855Z,19.68
2023-05-22T22:14:07.191Z,19.67
2023-05-22T22:16:35.953Z,19.63
2023-05-22T22:19:05.790Z,19.61
2023-05-22T22:21:34.286Z,19.59
2023-05-22T22:24:02.012Z,19.61
2023-05-22T22:26:30.742Z,19.65
2023-05-22T22:28:58.462Z,19.71
2023-05-22T22:31:27.644Z,19.78
2023-05-22T22:33:55.332Z,19.80
2023-05-22T22:36:24.371Z,19.74
2023-05-22T22:38:52.093Z,19.66
2023-05-22T22:41:19.774Z,19.56
2023-05-22T22:43:47.437Z,19.52
2023-05-22T22:46:15.343Z,19.53
2023-05-22T22:48:43.611Z,19.59
2023-05-22T22:51:11.546Z,19.60
2023-05-22T22:53:40.547Z,19.58
2023-05-22T22:56:08.313Z,19.55
2023-05-22T22:58:36.454Z,19.55
2023-05-22T23:01:05.121Z,19.47
2023-05-22T23:03:33.056Z,19.47
2023-05-22T23:06:00.829Z,19.50
2023-05-22T23:08:28.559Z,19.47
2023-05-22T23:10:57.819Z,19.42
2023-05-22T23:13:25.661Z,19.35
2023-05-22T23:15:53.521Z,19.31
2023-05-22T23:18:22.281Z,19.29
2023-05-22T23:20:50.157Z,19.35
2023-05-22T23:23:18.005Z,19.34
2023-05-22T23:25:45.663Z,19.38
2023-05-22T23:28:14.968Z,19.40
2023-05-22T23:30:42.626Z,19.38
2023-05-22T23:33:10.371Z,19.37
2023-05-22T23:35:38.157Z,19.36
2023-05-22T23:38:06.043Z,19.37
2023-05-22T23:40:33.732Z,19.37
2023-05-22T23:43:01.520Z,19.15
2023-05-22T23:45:30.826Z,19.15
2023-05-22T23:48:00.992Z,19.13
2023-05-22T23:50:28.690Z,19.16
2023-05-22T23:52:56.403Z,19.20
2023-05-22T23:55:24.463Z,19.20
2023-05-22T23:57:52.205Z,19.20
